sensor_id;sensor_type;location;lat;lon;timestamp;P1;durP1;ratioP1;P2;durP2;ratioP2
51836;SDS011;38941;53.254;6.600;2022-09-12T00:00:51;7.97;;;4.43;;
51836;SDS011;38941;53.254;6.600;2022-09-12T00:03:04;7.05;;;4.43;;
51836;SDS011;38941;53.254;6.600;2022-09-12T00:05:05;4.75;;;4.22;;
51836;SDS011;38941;53.254;6.600;2022-09-12T00:07:06;5.70;;;4.15;;
51836;SDS011;38941;53.254;6.600;2022-09-12T00:09:09;7.30;;;3.85;;
51836;SDS011;38941;53.254;6.600;2022-09-12T00:11:12;7.63;;;4.05;;
51836;SDS011;38941;53.254;6.600;2022-09-12T00:13:13;6.65;;;4.15;;
51836;SDS011;38941;53.254;6.600;2022-09-12T00:15:14;6.05;;;4.40;;
51836;SDS011;38941;53.254;6.600;2022-09-12T00:17:15;8.18;;;4.47;;
51836;SDS011;38941;53.254;6.600;2022-09-12T00:19:15;6.30;;;4.43;;
51836;SDS011;38941;53.254;6.600;2022-09-12T00:21:17;6.40;;;4.80;;
51836;SDS011;38941;53.254;6.600;2022-09-12T00:23:20;4.80;;;4.00;;
51836;SDS011;38941;53.254;6.600;2022-09-12T00:25:21;8.10;;;4.47;;
51836;SDS011;38941;53.254;6.600;2022-09-12T00:27:21;5.85;;;4.50;;
51836;SDS011;38941;53.254;6.600;2022-09-12T00:29:22;6.53;;;4.38;;
51836;SDS011;38941;53.254;6.600;2022-09-12T00:31:23;6.93;;;4.63;;
51836;SDS011;38941;53.254;6.600;2022-09-12T00:33:25;5.60;;;4.20;;
51836;SDS011;38941;53.254;6.600;2022-09-12T00:35:26;8.60;;;4.72;;
51836;SDS011;38941;53.254;6.600;2022-09-12T00:37:26;6.80;;;4.50;;
51836;SDS011;38941;53.254;6.600;2022-09-12T00:39:27;6.28;;;4.57;;
51836;SDS011;38941;53.254;6.600;2022-09-12T00:41:29;8.15;;;4.68;;
51836;SDS011;38941;53.254;6.600;2022-09-12T00:43:41;6.03;;;4.40;;
51836;SDS011;38941;53.254;6.600;2022-09-12T00:45:45;6.30;;;4.18;;
51836;SDS011;38941;53.254;6.600;2022-09-12T00:47:46;6.63;;;4.68;;
51836;SDS011;38941;53.254;6.600;2022-09-12T00:52:07;5.75;;;4.65;;
51836;SDS011;38941;53.254;6.600;2022-09-12T00:54:15;7.13;;;4.50;;
51836;SDS011;38941;53.254;6.600;2022-09-12T00:56:19;7.38;;;4.18;;
51836;SDS011;38941;53.254;6.600;2022-09-12T00:58:23;7.07;;;5.00;;
51836;SDS011;38941;53.254;6.600;2022-09-12T01:00:27;6.28;;;4.32;;
51836;SDS011;38941;53.254;6.600;2022-09-12T01:02:28;8.40;;;5.28;;
51836;SDS011;38941;53.254;6.600;2022-09-12T01:04:29;6.88;;;4.70;;
51836;SDS011;38941;53.254;6.600;2022-09-12T01:06:34;6.60;;;4.60;;
51836;SDS011;38941;53.254;6.600;2022-09-12T01:08:39;6.53;;;4.25;;
51836;SDS011;38941;53.254;6.600;2022-09-12T01:10:42;8.52;;;5.00;;
51836;SDS011;38941;53.254;6.600;2022-09-12T01:12:43;7.93;;;5.07;;
51836;SDS011;38941;53.254;6.600;2022-09-12T01:14:43;7.45;;;5.05;;
51836;SDS011;38941;53.254;6.600;2022-09-12T01:16:44;8.05;;;4.82;;
51836;SDS011;38941;53.254;6.600;2022-09-12T01:21:23;8.27;;;5.30;;
51836;SDS011;38941;53.254;6.600;2022-09-12T01:30:20;7.97;;;5.47;;
51836;SDS011;38941;53.254;6.600;2022-09-12T01:35:13;6.63;;;5.13;;
51836;SDS011;38941;53.254;6.600;2022-09-12T01:38:18;6.50;;;5.07;;
51836;SDS011;38941;53.254;6.600;2022-09-12T01:43:13;8.40;;;4.60;;
51836;SDS011;38941;53.254;6.600;2022-09-12T01:45:41;8.32;;;5.25;;
51836;SDS011;38941;53.254;6.600;2022-09-12T01:47:44;7.50;;;5.30;;
51836;SDS011;38941;53.254;6.600;2022-09-12T01:50:04;8.82;;;5.53;;
51836;SDS011;38941;53.254;6.600;2022-09-12T01:54:55;10.30;;;6.15;;
51836;SDS011;38941;53.254;6.600;2022-09-12T01:57:06;7.22;;;5.60;;
51836;SDS011;38941;53.254;6.600;2022-09-12T01:59:25;9.05;;;6.18;;
51836;SDS011;38941;53.254;6.600;2022-09-12T02:01:31;10.18;;;6.45;;
51836;SDS011;38941;53.254;6.600;2022-09-12T02:03:39;9.73;;;6.55;;
51836;SDS011;38941;53.254;6.600;2022-09-12T02:06:00;10.52;;;6.60;;
51836;SDS011;38941;53.254;6.600;2022-09-12T02:08:08;13.43;;;6.80;;
51836;SDS011;38941;53.254;6.600;2022-09-12T02:10:29;10.35;;;6.55;;
51836;SDS011;38941;53.254;6.600;2022-09-12T02:12:36;13.48;;;7.43;;
51836;SDS011;38941;53.254;6.600;2022-09-12T02:14:42;9.30;;;7.68;;
51836;SDS011;38941;53.254;6.600;2022-09-12T02:17:08;11.68;;;7.20;;
51836;SDS011;38941;53.254;6.600;2022-09-12T02:19:14;11.55;;;7.60;;
51836;SDS011;38941;53.254;6.600;2022-09-12T02:21:18;14.18;;;8.05;;
51836;SDS011;38941;53.254;6.600;2022-09-12T02:23:25;12.77;;;7.82;;
51836;SDS011;38941;53.254;6.600;2022-09-12T02:25:28;13.43;;;8.02;;
51836;SDS011;38941;53.254;6.600;2022-09-12T02:27:34;12.40;;;8.18;;
51836;SDS011;38941;53.254;6.600;2022-09-12T02:29:40;11.52;;;7.50;;
51836;SDS011;38941;53.254;6.600;2022-09-12T02:31:45;11.05;;;8.05;;
51836;SDS011;38941;53.254;6.600;2022-09-12T02:36:31;13.13;;;8.25;;
51836;SDS011;38941;53.254;6.600;2022-09-12T02:38:44;13.32;;;8.65;;
51836;SDS011;38941;53.254;6.600;2022-09-12T02:40:47;11.75;;;8.50;;
51836;SDS011;38941;53.254;6.600;2022-09-12T02:42:48;11.82;;;8.15;;
51836;SDS011;38941;53.254;6.600;2022-09-12T02:44:50;12.35;;;8.73;;
51836;SDS011;38941;53.254;6.600;2022-09-12T02:47:03;13.30;;;8.32;;
51836;SDS011;38941;53.254;6.600;2022-09-12T02:49:09;15.95;;;9.20;;
51836;SDS011;38941;53.254;6.600;2022-09-12T02:51:10;13.88;;;9.23;;
51836;SDS011;38941;53.254;6.600;2022-09-12T02:53:11;12.43;;;8.98;;
51836;SDS011;38941;53.254;6.600;2022-09-12T02:55:13;16.20;;;9.50;;
51836;SDS011;38941;53.254;6.600;2022-09-12T02:57:15;15.90;;;9.63;;
51836;SDS011;38941;53.254;6.600;2022-09-12T02:59:20;13.43;;;9.63;;
51836;SDS011;38941;53.254;6.600;2022-09-12T03:06:38;14.35;;;10.05;;
51836;SDS011;38941;53.254;6.600;2022-09-12T03:09:11;17.40;;;10.80;;
51836;SDS011;38941;53.254;6.600;2022-09-12T03:22:53;17.83;;;11.85;;
51836;SDS011;38941;53.254;6.600;2022-09-12T03:25:11;20.70;;;11.40;;
51836;SDS011;38941;53.254;6.600;2022-09-12T03:27:18;19.15;;;13.13;;
51836;SDS011;38941;53.254;6.600;2022-09-12T03:29:32;19.50;;;12.68;;
51836;SDS011;38941;53.254;6.600;2022-09-12T03:31:33;21.20;;;13.18;;
51836;SDS011;38941;53.254;6.600;2022-09-12T03:33:34;19.30;;;12.75;;
51836;SDS011;38941;53.254;6.600;2022-09-12T03:35:34;21.70;;;12.93;;
51836;SDS011;38941;53.254;6.600;2022-09-12T03:37:36;18.85;;;13.80;;
51836;SDS011;38941;53.254;6.600;2022-09-12T03:39:37;24.77;;;13.80;;
51836;SDS011;38941;53.254;6.600;2022-09-12T03:41:38;23.63;;;12.73;;
51836;SDS011;38941;53.254;6.600;2022-09-12T03:43:39;21.05;;;13.25;;
51836;SDS011;38941;53.254;6.600;2022-09-12T03:45:39;19.70;;;13.10;;
51836;SDS011;38941;53.254;6.600;2022-09-12T03:47:40;23.90;;;14.45;;
51836;SDS011;38941;53.254;6.600;2022-09-12T03:49:41;21.60;;;13.82;;
51836;SDS011;38941;53.254;6.600;2022-09-12T03:51:42;22.95;;;14.18;;
51836;SDS011;38941;53.254;6.600;2022-09-12T03:53:42;23.90;;;14.93;;
51836;SDS011;38941;53.254;6.600;2022-09-12T03:55:43;23.45;;;14.77;;
51836;SDS011;38941;53.254;6.600;2022-09-12T03:57:44;22.85;;;14.35;;
51836;SDS011;38941;53.254;6.600;2022-09-12T03:59:47;24.42;;;15.55;;
51836;SDS011;38941;53.254;6.600;2022-09-12T04:01:48;22.65;;;15.13;;
51836;SDS011;38941;53.254;6.600;2022-09-12T04:03:50;22.88;;;15.45;;
51836;SDS011;38941;53.254;6.600;2022-09-12T04:05:51;26.17;;;16.00;;
51836;SDS011;38941;53.254;6.600;2022-09-12T04:07:51;27.13;;;17.17;;
51836;SDS011;38941;53.254;6.600;2022-09-12T04:09:52;25.02;;;15.48;;
51836;SDS011;38941;53.254;6.600;2022-09-12T04:11:53;25.85;;;16.35;;
51836;SDS011;38941;53.254;6.600;2022-09-12T04:13:54;28.23;;;16.30;;
51836;SDS011;38941;53.254;6.600;2022-09-12T04:15:56;28.98;;;16.27;;
51836;SDS011;38941;53.254;6.600;2022-09-12T04:17:57;27.58;;;15.98;;
51836;SDS011;38941;53.254;6.600;2022-09-12T04:19:58;27.15;;;15.95;;
51836;SDS011;38941;53.254;6.600;2022-09-12T04:21:58;25.83;;;15.35;;
51836;SDS011;38941;53.254;6.600;2022-09-12T04:23:59;26.38;;;15.40;;
51836;SDS011;38941;53.254;6.600;2022-09-12T04:26:01;27.40;;;16.25;;
51836;SDS011;38941;53.254;6.600;2022-09-12T04:28:02;24.90;;;14.85;;
51836;SDS011;38941;53.254;6.600;2022-09-12T04:30:03;25.13;;;15.82;;
51836;SDS011;38941;53.254;6.600;2022-09-12T04:32:04;24.27;;;15.45;;
51836;SDS011;38941;53.254;6.600;2022-09-12T04:34:05;22.88;;;14.80;;
51836;SDS011;38941;53.254;6.600;2022-09-12T04:36:11;25.73;;;14.73;;
51836;SDS011;38941;53.254;6.600;2022-09-12T04:38:15;23.25;;;15.38;;
51836;SDS011;38941;53.254;6.600;2022-09-12T04:40:16;26.70;;;17.42;;
51836;SDS011;38941;53.254;6.600;2022-09-12T04:42:18;28.10;;;17.52;;
51836;SDS011;38941;53.254;6.600;2022-09-12T04:44:18;28.95;;;17.33;;
51836;SDS011;38941;53.254;6.600;2022-09-12T04:46:19;27.65;;;17.80;;
51836;SDS011;38941;53.254;6.600;2022-09-12T04:48:20;28.35;;;18.52;;
51836;SDS011;38941;53.254;6.600;2022-09-12T04:50:22;30.35;;;17.05;;
51836;SDS011;38941;53.254;6.600;2022-09-12T04:52:22;32.03;;;18.23;;
51836;SDS011;38941;53.254;6.600;2022-09-12T04:54:23;27.42;;;17.23;;
51836;SDS011;38941;53.254;6.600;2022-09-12T04:56:24;30.88;;;18.08;;
51836;SDS011;38941;53.254;6.600;2022-09-12T04:58:26;33.55;;;17.50;;
51836;SDS011;38941;53.254;6.600;2022-09-12T05:00:27;29.08;;;16.92;;
51836;SDS011;38941;53.254;6.600;2022-09-12T05:02:28;31.42;;;19.10;;
51836;SDS011;38941;53.254;6.600;2022-09-12T05:04:28;26.17;;;16.40;;
51836;SDS011;38941;53.254;6.600;2022-09-12T05:06:31;26.75;;;17.80;;
51836;SDS011;38941;53.254;6.600;2022-09-12T05:08:33;26.73;;;17.15;;
51836;SDS011;38941;53.254;6.600;2022-09-12T05:10:34;31.58;;;18.10;;
51836;SDS011;38941;53.254;6.600;2022-09-12T05:12:35;27.58;;;17.58;;
51836;SDS011;38941;53.254;6.600;2022-09-12T05:14:36;29.08;;;17.80;;
51836;SDS011;38941;53.254;6.600;2022-09-12T05:16:37;34.95;;;19.73;;
51836;SDS011;38941;53.254;6.600;2022-09-12T05:18:38;30.92;;;17.90;;
51836;SDS011;38941;53.254;6.600;2022-09-12T05:20:38;31.88;;;19.67;;
51836;SDS011;38941;53.254;6.600;2022-09-12T05:22:39;32.42;;;19.35;;
51836;SDS011;38941;53.254;6.600;2022-09-12T05:24:40;29.55;;;18.08;;
51836;SDS011;38941;53.254;6.600;2022-09-12T05:26:42;32.05;;;18.27;;
51836;SDS011;38941;53.254;6.600;2022-09-12T05:28:43;32.75;;;19.10;;
51836;SDS011;38941;53.254;6.600;2022-09-12T05:30:44;36.20;;;18.42;;
51836;SDS011;38941;53.254;6.600;2022-09-12T05:32:44;33.13;;;19.17;;
51836;SDS011;38941;53.254;6.600;2022-09-12T05:34:45;34.88;;;18.90;;
51836;SDS011;38941;53.254;6.600;2022-09-12T05:36:46;30.63;;;17.98;;
51836;SDS011;38941;53.254;6.600;2022-09-12T05:38:47;29.02;;;18.13;;
51836;SDS011;38941;53.254;6.600;2022-09-12T05:40:48;28.83;;;17.52;;
51836;SDS011;38941;53.254;6.600;2022-09-12T05:42:48;27.92;;;16.40;;
51836;SDS011;38941;53.254;6.600;2022-09-12T05:44:49;31.10;;;17.38;;
51836;SDS011;38941;53.254;6.600;2022-09-12T05:46:50;26.77;;;16.02;;
51836;SDS011;38941;53.254;6.600;2022-09-12T05:48:53;30.08;;;16.65;;
51836;SDS011;38941;53.254;6.600;2022-09-12T05:50:58;28.98;;;16.30;;
51836;SDS011;38941;53.254;6.600;2022-09-12T05:53:00;31.85;;;16.75;;
51836;SDS011;38941;53.254;6.600;2022-09-12T05:55:01;27.92;;;15.63;;
51836;SDS011;38941;53.254;6.600;2022-09-12T05:57:02;27.08;;;15.93;;
51836;SDS011;38941;53.254;6.600;2022-09-12T05:59:04;28.27;;;15.45;;
51836;SDS011;38941;53.254;6.600;2022-09-12T06:01:08;27.27;;;14.57;;
51836;SDS011;38941;53.254;6.600;2022-09-12T06:03:11;28.02;;;15.68;;
51836;SDS011;38941;53.254;6.600;2022-09-12T06:05:12;27.40;;;15.23;;
51836;SDS011;38941;53.254;6.600;2022-09-12T06:07:12;27.15;;;15.23;;
51836;SDS011;38941;53.254;6.600;2022-09-12T06:09:14;26.63;;;16.15;;
51836;SDS011;38941;53.254;6.600;2022-09-12T06:11:19;26.33;;;14.85;;
51836;SDS011;38941;53.254;6.600;2022-09-12T06:13:21;32.22;;;15.90;;
51836;SDS011;38941;53.254;6.600;2022-09-12T06:15:22;30.75;;;16.02;;
51836;SDS011;38941;53.254;6.600;2022-09-12T06:17:23;33.10;;;16.23;;
51836;SDS011;38941;53.254;6.600;2022-09-12T06:19:24;30.48;;;15.82;;
51836;SDS011;38941;53.254;6.600;2022-09-12T06:21:27;29.10;;;15.75;;
51836;SDS011;38941;53.254;6.600;2022-09-12T06:23:29;29.45;;;15.82;;
51836;SDS011;38941;53.254;6.600;2022-09-12T06:25:30;28.23;;;14.88;;
51836;SDS011;38941;53.254;6.600;2022-09-12T06:27:31;29.50;;;16.33;;
51836;SDS011;38941;53.254;6.600;2022-09-12T06:29:32;28.63;;;15.73;;
51836;SDS011;38941;53.254;6.600;2022-09-12T06:31:34;26.40;;;14.38;;
51836;SDS011;38941;53.254;6.600;2022-09-12T06:33:36;26.75;;;15.63;;
51836;SDS011;38941;53.254;6.600;2022-09-12T06:35:41;28.42;;;15.23;;
51836;SDS011;38941;53.254;6.600;2022-09-12T06:37:43;30.80;;;16.52;;
51836;SDS011;38941;53.254;6.600;2022-09-12T06:39:44;30.50;;;15.50;;
51836;SDS011;38941;53.254;6.600;2022-09-12T06:41:46;26.35;;;15.45;;
51836;SDS011;38941;53.254;6.600;2022-09-12T06:43:50;29.45;;;15.50;;
51836;SDS011;38941;53.254;6.600;2022-09-12T06:45:52;28.70;;;15.27;;
51836;SDS011;38941;53.254;6.600;2022-09-12T06:47:53;26.27;;;15.45;;
51836;SDS011;38941;53.254;6.600;2022-09-12T06:49:54;33.03;;;16.50;;
51836;SDS011;38941;53.254;6.600;2022-09-12T06:51:55;30.73;;;16.73;;
51836;SDS011;38941;53.254;6.600;2022-09-12T06:53:56;36.53;;;16.42;;
51836;SDS011;38941;53.254;6.600;2022-09-12T06:55:57;31.70;;;16.75;;
51836;SDS011;38941;53.254;6.600;2022-09-12T06:58:00;36.95;;;17.02;;
51836;SDS011;38941;53.254;6.600;2022-09-12T07:00:02;32.67;;;16.30;;
51836;SDS011;38941;53.254;6.600;2022-09-12T07:02:04;33.22;;;17.77;;
51836;SDS011;38941;53.254;6.600;2022-09-12T07:04:05;37.60;;;18.70;;
51836;SDS011;38941;53.254;6.600;2022-09-12T07:06:07;30.13;;;17.65;;
51836;SDS011;38941;53.254;6.600;2022-09-12T07:08:10;43.90;;;18.98;;
51836;SDS011;38941;53.254;6.600;2022-09-12T07:10:10;36.75;;;19.88;;
51836;SDS011;38941;53.254;6.600;2022-09-12T07:12:11;33.05;;;18.38;;
51836;SDS011;38941;53.254;6.600;2022-09-12T07:14:12;39.50;;;18.15;;
51836;SDS011;38941;53.254;6.600;2022-09-12T07:16:14;41.97;;;19.23;;
51836;SDS011;38941;53.254;6.600;2022-09-12T07:18:15;38.58;;;20.30;;
51836;SDS011;38941;53.254;6.600;2022-09-12T07:20:16;40.67;;;20.63;;
51836;SDS011;38941;53.254;6.600;2022-09-12T07:22:17;39.40;;;19.75;;
51836;SDS011;38941;53.254;6.600;2022-09-12T07:24:18;40.75;;;19.48;;
51836;SDS011;38941;53.254;6.600;2022-09-12T07:26:18;38.28;;;18.60;;
51836;SDS011;38941;53.254;6.600;2022-09-12T07:28:19;39.88;;;20.50;;
51836;SDS011;38941;53.254;6.600;2022-09-12T07:30:20;40.92;;;19.67;;
51836;SDS011;38941;53.254;6.600;2022-09-12T07:32:22;36.17;;;18.20;;
51836;SDS011;38941;53.254;6.600;2022-09-12T07:34:22;38.10;;;19.17;;
51836;SDS011;38941;53.254;6.600;2022-09-12T07:36:23;41.78;;;20.27;;
51836;SDS011;38941;53.254;6.600;2022-09-12T07:38:25;45.03;;;20.77;;
51836;SDS011;38941;53.254;6.600;2022-09-12T07:40:25;41.05;;;19.45;;
51836;SDS011;38941;53.254;6.600;2022-09-12T07:42:26;41.10;;;20.27;;
51836;SDS011;38941;53.254;6.600;2022-09-12T07:44:27;40.97;;;21.52;;
51836;SDS011;38941;53.254;6.600;2022-09-12T07:46:29;44.75;;;20.83;;
51836;SDS011;38941;53.254;6.600;2022-09-12T07:48:30;39.60;;;19.88;;
51836;SDS011;38941;53.254;6.600;2022-09-12T07:50:31;48.30;;;22.50;;
51836;SDS011;38941;53.254;6.600;2022-09-12T07:52:32;43.40;;;20.88;;
51836;SDS011;38941;53.254;6.600;2022-09-12T07:54:33;41.78;;;19.73;;
51836;SDS011;38941;53.254;6.600;2022-09-12T07:56:33;45.17;;;21.40;;
51836;SDS011;38941;53.254;6.600;2022-09-12T07:58:34;42.75;;;21.42;;
51836;SDS011;38941;53.254;6.600;2022-09-12T08:00:36;41.13;;;21.48;;
51836;SDS011;38941;53.254;6.600;2022-09-12T08:02:37;44.80;;;21.35;;
51836;SDS011;38941;53.254;6.600;2022-09-12T08:04:38;50.42;;;21.95;;
51836;SDS011;38941;53.254;6.600;2022-09-12T08:06:41;47.88;;;22.58;;
51836;SDS011;38941;53.254;6.600;2022-09-12T08:08:42;41.33;;;20.35;;
51836;SDS011;38941;53.254;6.600;2022-09-12T08:10:43;45.67;;;21.05;;
51836;SDS011;38941;53.254;6.600;2022-09-12T08:12:43;40.58;;;20.70;;
51836;SDS011;38941;53.254;6.600;2022-09-12T08:14:44;44.70;;;21.85;;
51836;SDS011;38941;53.254;6.600;2022-09-12T08:16:45;43.58;;;20.63;;
51836;SDS011;38941;53.254;6.600;2022-09-12T08:18:47;43.92;;;20.35;;
51836;SDS011;38941;53.254;6.600;2022-09-12T08:20:54;46.15;;;20.45;;
51836;SDS011;38941;53.254;6.600;2022-09-12T08:22:56;45.88;;;21.33;;
51836;SDS011;38941;53.254;6.600;2022-09-12T08:24:56;43.88;;;19.45;;
51836;SDS011;38941;53.254;6.600;2022-09-12T08:26:57;42.75;;;20.63;;
51836;SDS011;38941;53.254;6.600;2022-09-12T08:28:58;38.40;;;18.52;;
51836;SDS011;38941;53.254;6.600;2022-09-12T08:31:03;39.13;;;20.15;;
51836;SDS011;38941;53.254;6.600;2022-09-12T08:33:05;42.20;;;19.27;;
51836;SDS011;38941;53.254;6.600;2022-09-12T08:35:07;40.20;;;18.63;;
51836;SDS011;38941;53.254;6.600;2022-09-12T08:37:07;43.20;;;18.77;;
51836;SDS011;38941;53.254;6.600;2022-09-12T08:39:10;44.42;;;19.75;;
51836;SDS011;38941;53.254;6.600;2022-09-12T08:46:13;37.08;;;18.40;;
51836;SDS011;38941;53.254;6.600;2022-09-12T08:48:19;40.47;;;19.33;;
51836;SDS011;38941;53.254;6.600;2022-09-12T08:50:20;38.92;;;18.55;;
51836;SDS011;38941;53.254;6.600;2022-09-12T08:57:40;37.28;;;16.95;;
51836;SDS011;38941;53.254;6.600;2022-09-12T08:59:41;37.13;;;17.65;;
51836;SDS011;38941;53.254;6.600;2022-09-12T09:01:44;31.77;;;17.02;;
51836;SDS011;38941;53.254;6.600;2022-09-12T09:17:00;32.42;;;15.77;;
51836;SDS011;38941;53.254;6.600;2022-09-12T09:19:08;32.72;;;15.88;;
51836;SDS011;38941;53.254;6.600;2022-09-12T09:21:22;31.92;;;15.38;;
51836;SDS011;38941;53.254;6.600;2022-09-12T09:30:29;29.23;;;15.63;;
51836;SDS011;38941;53.254;6.600;2022-09-12T09:32:32;33.30;;;16.25;;
51836;SDS011;38941;53.254;6.600;2022-09-12T09:34:37;31.60;;;15.25;;
51836;SDS011;38941;53.254;6.600;2022-09-12T09:36:51;32.03;;;15.05;;
51836;SDS011;38941;53.254;6.600;2022-09-12T09:39:04;31.15;;;16.08;;
51836;SDS011;38941;53.254;6.600;2022-09-12T09:41:21;34.20;;;15.68;;
51836;SDS011;38941;53.254;6.600;2022-09-12T09:43:36;31.80;;;15.27;;
51836;SDS011;38941;53.254;6.600;2022-09-12T09:45:37;29.20;;;14.25;;
51836;SDS011;38941;53.254;6.600;2022-09-12T09:47:41;29.58;;;15.30;;
51836;SDS011;38941;53.254;6.600;2022-09-12T09:49:48;27.83;;;14.20;;
51836;SDS011;38941;53.254;6.600;2022-09-12T09:51:48;26.95;;;13.85;;
51836;SDS011;38941;53.254;6.600;2022-09-12T09:53:53;30.40;;;13.45;;
51836;SDS011;38941;53.254;6.600;2022-09-12T09:56:02;30.33;;;14.23;;
51836;SDS011;38941;53.254;6.600;2022-09-12T09:58:08;26.45;;;13.82;;
51836;SDS011;38941;53.254;6.600;2022-09-12T10:00:23;24.83;;;13.48;;
51836;SDS011;38941;53.254;6.600;2022-09-12T10:02:29;30.17;;;14.07;;
51836;SDS011;38941;53.254;6.600;2022-09-12T10:04:34;24.50;;;12.85;;
51836;SDS011;38941;53.254;6.600;2022-09-12T10:06:38;28.60;;;14.68;;
51836;SDS011;38941;53.254;6.600;2022-09-12T10:08:39;29.67;;;14.25;;
51836;SDS011;38941;53.254;6.600;2022-09-12T10:10:51;27.02;;;14.18;;
51836;SDS011;38941;53.254;6.600;2022-09-12T10:13:12;25.60;;;13.45;;
51836;SDS011;38941;53.254;6.600;2022-09-12T10:15:28;32.00;;;13.73;;
51836;SDS011;38941;53.254;6.600;2022-09-12T10:17:30;22.65;;;11.93;;
51836;SDS011;38941;53.254;6.600;2022-09-12T10:19:45;25.83;;;13.27;;
51836;SDS011;38941;53.254;6.600;2022-09-12T10:21:46;23.08;;;12.45;;
51836;SDS011;38941;53.254;6.600;2022-09-12T10:23:52;25.92;;;12.68;;
51836;SDS011;38941;53.254;6.600;2022-09-12T10:26:04;23.48;;;13.95;;
51836;SDS011;38941;53.254;6.600;2022-09-12T10:28:11;22.67;;;13.30;;
51836;SDS011;38941;53.254;6.600;2022-09-12T10:30:23;26.02;;;12.55;;
51836;SDS011;38941;53.254;6.600;2022-09-12T10:32:46;25.10;;;13.00;;
51836;SDS011;38941;53.254;6.600;2022-09-12T10:34:53;23.88;;;12.43;;
51836;SDS011;38941;53.254;6.600;2022-09-12T10:36:58;26.77;;;11.68;;
51836;SDS011;38941;53.254;6.600;2022-09-12T10:39:04;23.88;;;12.57;;
51836;SDS011;38941;53.254;6.600;2022-09-12T10:41:07;23.00;;;12.05;;
51836;SDS011;38941;53.254;6.600;2022-09-12T10:43:17;22.73;;;11.02;;
51836;SDS011;38941;53.254;6.600;2022-09-12T10:45:31;24.65;;;11.88;;
51836;SDS011;38941;53.254;6.600;2022-09-12T10:47:36;25.02;;;11.85;;
51836;SDS011;38941;53.254;6.600;2022-09-12T10:49:37;21.98;;;11.20;;
51836;SDS011;38941;53.254;6.600;2022-09-12T10:51:39;19.63;;;9.93;;
51836;SDS011;38941;53.254;6.600;2022-09-12T10:53:40;21.13;;;9.80;;
51836;SDS011;38941;53.254;6.600;2022-09-12T10:55:52;16.42;;;9.40;;
51836;SDS011;38941;53.254;6.600;2022-09-12T11:00:34;21.63;;;10.10;;
51836;SDS011;38941;53.254;6.600;2022-09-12T11:11:53;12.82;;;6.95;;
51836;SDS011;38941;53.254;6.600;2022-09-12T11:28:49;19.75;;;8.45;;
51836;SDS011;38941;53.254;6.600;2022-09-12T11:33:23;28.75;;;11.90;;
51836;SDS011;38941;53.254;6.600;2022-09-12T11:35:47;17.92;;;8.55;;
51836;SDS011;38941;53.254;6.600;2022-09-12T11:40:19;23.35;;;11.05;;
51836;SDS011;38941;53.254;6.600;2022-09-12T11:42:32;17.55;;;9.15;;
51836;SDS011;38941;53.254;6.600;2022-09-12T11:44:36;16.67;;;7.57;;
51836;SDS011;38941;53.254;6.600;2022-09-12T11:46:45;19.02;;;8.50;;
51836;SDS011;38941;53.254;6.600;2022-09-12T11:50:53;13.45;;;8.18;;
51836;SDS011;38941;53.254;6.600;2022-09-12T11:53:06;16.95;;;8.65;;
51836;SDS011;38941;53.254;6.600;2022-09-12T11:55:17;15.20;;;7.40;;
51836;SDS011;38941;53.254;6.600;2022-09-12T11:59:46;13.38;;;6.80;;
51836;SDS011;38941;53.254;6.600;2022-09-12T12:01:57;10.80;;;5.63;;
51836;SDS011;38941;53.254;6.600;2022-09-12T12:04:00;10.27;;;5.28;;
51836;SDS011;38941;53.254;6.600;2022-09-12T12:06:12;10.30;;;5.72;;
51836;SDS011;38941;53.254;6.600;2022-09-12T12:08:23;13.10;;;6.53;;
51836;SDS011;38941;53.254;6.600;2022-09-12T12:12:31;13.95;;;5.35;;
51836;SDS011;38941;53.254;6.600;2022-09-12T12:14:36;7.30;;;4.47;;
51836;SDS011;38941;53.254;6.600;2022-09-12T12:16:41;8.93;;;4.22;;
51836;SDS011;38941;53.254;6.600;2022-09-12T12:18:42;10.00;;;5.30;;
51836;SDS011;38941;53.254;6.600;2022-09-12T12:20:43;8.50;;;4.18;;
51836;SDS011;38941;53.254;6.600;2022-09-12T12:22:51;10.13;;;5.50;;
51836;SDS011;38941;53.254;6.600;2022-09-12T12:24:58;7.47;;;4.18;;
51836;SDS011;38941;53.254;6.600;2022-09-12T12:27:23;7.82;;;4.38;;
51836;SDS011;38941;53.254;6.600;2022-09-12T12:29:45;10.50;;;5.30;;
51836;SDS011;38941;53.254;6.600;2022-09-12T12:34:02;8.30;;;4.38;;
51836;SDS011;38941;53.254;6.600;2022-09-12T12:36:35;6.33;;;4.00;;
51836;SDS011;38941;53.254;6.600;2022-09-12T12:40:39;10.68;;;5.20;;
51836;SDS011;38941;53.254;6.600;2022-09-12T12:43:01;7.68;;;4.32;;
51836;SDS011;38941;53.254;6.600;2022-09-12T12:47:32;8.45;;;4.13;;
51836;SDS011;38941;53.254;6.600;2022-09-12T12:49:42;8.15;;;3.97;;
51836;SDS011;38941;53.254;6.600;2022-09-12T12:53:57;5.25;;;3.38;;
51836;SDS011;38941;53.254;6.600;2022-09-12T12:55:59;6.18;;;3.78;;
51836;SDS011;38941;53.254;6.600;2022-09-12T12:58:04;6.32;;;3.88;;
51836;SDS011;38941;53.254;6.600;2022-09-12T13:02:31;6.70;;;3.45;;
51836;SDS011;38941;53.254;6.600;2022-09-12T13:04:35;7.15;;;4.22;;
51836;SDS011;38941;53.254;6.600;2022-09-12T13:06:36;7.47;;;4.18;;
51836;SDS011;38941;53.254;6.600;2022-09-12T13:08:39;7.90;;;3.42;;
51836;SDS011;38941;53.254;6.600;2022-09-12T13:13:05;5.15;;;3.20;;
51836;SDS011;38941;53.254;6.600;2022-09-12T13:17:38;7.53;;;4.00;;
51836;SDS011;38941;53.254;6.600;2022-09-12T13:19:42;6.25;;;2.70;;
51836;SDS011;38941;53.254;6.600;2022-09-12T13:24:00;6.00;;;3.13;;
51836;SDS011;38941;53.254;6.600;2022-09-12T13:26:09;8.38;;;3.47;;
51836;SDS011;38941;53.254;6.600;2022-09-12T13:28:15;5.57;;;3.78;;
51836;SDS011;38941;53.254;6.600;2022-09-12T13:30:17;5.13;;;3.10;;
51836;SDS011;38941;53.254;6.600;2022-09-12T13:32:18;5.20;;;3.67;;
51836;SDS011;38941;53.254;6.600;2022-09-12T13:34:29;5.97;;;3.08;;
51836;SDS011;38941;53.254;6.600;2022-09-12T13:43:42;5.45;;;3.30;;
51836;SDS011;38941;53.254;6.600;2022-09-12T13:45:46;11.32;;;4.53;;
51836;SDS011;38941;53.254;6.600;2022-09-12T13:47:52;6.70;;;4.00;;
51836;SDS011;38941;53.254;6.600;2022-09-12T13:50:03;5.90;;;3.72;;
51836;SDS011;38941;53.254;6.600;2022-09-12T13:52:14;6.20;;;3.53;;
51836;SDS011;38941;53.254;6.600;2022-09-12T13:54:27;7.80;;;3.58;;
51836;SDS011;38941;53.254;6.600;2022-09-12T13:56:28;6.38;;;3.70;;
51836;SDS011;38941;53.254;6.600;2022-09-12T13:58:30;6.43;;;4.03;;
51836;SDS011;38941;53.254;6.600;2022-09-12T14:00:33;6.15;;;4.05;;
51836;SDS011;38941;53.254;6.600;2022-09-12T14:02:35;7.50;;;4.28;;
51836;SDS011;38941;53.254;6.600;2022-09-12T14:04:38;6.68;;;3.78;;
51836;SDS011;38941;53.254;6.600;2022-09-12T14:06:58;5.50;;;3.65;;
51836;SDS011;38941;53.254;6.600;2022-09-12T14:09:02;6.70;;;4.10;;
51836;SDS011;38941;53.254;6.600;2022-09-12T14:11:26;6.38;;;3.95;;
51836;SDS011;38941;53.254;6.600;2022-09-12T14:13:28;5.82;;;3.45;;
51836;SDS011;38941;53.254;6.600;2022-09-12T14:15:31;7.45;;;2.95;;
51836;SDS011;38941;53.254;6.600;2022-09-12T14:17:36;4.53;;;2.95;;
51836;SDS011;38941;53.254;6.600;2022-09-12T14:19:38;5.55;;;3.22;;
51836;SDS011;38941;53.254;6.600;2022-09-12T14:21:39;7.07;;;4.10;;
51836;SDS011;38941;53.254;6.600;2022-09-12T14:23:41;7.15;;;3.50;;
51836;SDS011;38941;53.254;6.600;2022-09-12T14:25:46;6.68;;;3.22;;
51836;SDS011;38941;53.254;6.600;2022-09-12T14:27:52;8.40;;;3.95;;
51836;SDS011;38941;53.254;6.600;2022-09-12T14:29:56;5.70;;;3.60;;